sensor_id;sensor_type;location;lat;lon;timestamp;P1;durP1;ratioP1;P2;durP2;ratioP2
28174;SDS011;59417;44.788;10.334;2023-04-24T00:00:05;4.53;;;2.85;;
28174;SDS011;59417;44.788;10.334;2023-04-24T00:02:31;4.78;;;3.33;;
28174;SDS011;59417;44.788;10.334;2023-04-24T00:04:58;4.40;;;3.28;;
28174;SDS011;59417;44.788;10.334;2023-04-24T00:07:28;7.00;;;3.88;;
28174;SDS011;59417;44.788;10.334;2023-04-24T00:09:54;10.52;;;3.50;;
28174;SDS011;59417;44.788;10.334;2023-04-24T00:12:20;5.28;;;3.50;;
28174;SDS011;59417;44.788;10.334;2023-04-24T00:14:46;10.40;;;3.90;;
28174;SDS011;59417;44.788;10.334;2023-04-24T00:17:11;4.93;;;3.42;;
28174;SDS011;59417;44.788;10.334;2023-04-24T00:19:37;6.30;;;2.92;;
28174;SDS011;59417;44.788;10.334;2023-04-24T00:22:03;8.23;;;3.78;;
28174;SDS011;59417;44.788;10.334;2023-04-24T00:24:29;6.50;;;3.38;;
28174;SDS011;59417;44.788;10.334;2023-04-24T00:26:55;8.43;;;4.07;;
28174;SDS011;59417;44.788;10.334;2023-04-24T00:29:20;7.00;;;3.50;;
28174;SDS011;59417;44.788;10.334;2023-04-24T00:31:46;5.90;;;3.60;;
28174;SDS011;59417;44.788;10.334;2023-04-24T00:34:12;9.20;;;3.97;;
28174;SDS011;59417;44.788;10.334;2023-04-24T00:36:38;6.30;;;4.20;;
28174;SDS011;59417;44.788;10.334;2023-04-24T00:39:04;7.35;;;4.32;;
28174;SDS011;59417;44.788;10.334;2023-04-24T00:41:30;10.50;;;4.97;;
28174;SDS011;59417;44.788;10.334;2023-04-24T00:43:56;9.73;;;5.15;;
28174;SDS011;59417;44.788;10.334;2023-04-24T00:46:22;12.27;;;5.38;;
28174;SDS011;59417;44.788;10.334;2023-04-24T00:48:47;9.73;;;5.28;;
28174;SDS011;59417;44.788;10.334;2023-04-24T00:51:13;10.00;;;5.13;;
28174;SDS011;59417;44.788;10.334;2023-04-24T00:53:38;12.45;;;5.10;;
28174;SDS011;59417;44.788;10.334;2023-04-24T00:56:05;8.93;;;5.07;;
28174;SDS011;59417;44.788;10.334;2023-04-24T00:58:31;7.72;;;5.10;;
28174;SDS011;59417;44.788;10.334;2023-04-24T01:00:57;11.43;;;5.55;;
28174;SDS011;59417;44.788;10.334;2023-04-24T01:03:29;7.95;;;5.32;;
28174;SDS011;59417;44.788;10.334;2023-04-24T01:05:56;13.13;;;5.05;;
28174;SDS011;59417;44.788;10.334;2023-04-24T01:08:23;9.43;;;5.22;;
28174;SDS011;59417;44.788;10.334;2023-04-24T01:10:51;8.55;;;5.03;;
28174;SDS011;59417;44.788;10.334;2023-04-24T01:13:18;9.40;;;5.32;;
28174;SDS011;59417;44.788;10.334;2023-04-24T01:15:44;8.30;;;5.72;;
28174;SDS011;59417;44.788;10.334;2023-04-24T01:18:11;7.57;;;5.15;;
28174;SDS011;59417;44.788;10.334;2023-04-24T01:20:37;7.93;;;4.88;;
28174;SDS011;59417;44.788;10.334;2023-04-24T01:23:08;10.10;;;5.55;;
28174;SDS011;59417;44.788;10.334;2023-04-24T01:25:34;11.45;;;5.55;;
28174;SDS011;59417;44.788;10.334;2023-04-24T01:28:01;6.32;;;5.25;;
28174;SDS011;59417;44.788;10.334;2023-04-24T01:30:27;6.35;;;4.65;;
28174;SDS011;59417;44.788;10.334;2023-04-24T01:32:53;7.15;;;5.03;;
28174;SDS011;59417;44.788;10.334;2023-04-24T01:35:19;7.65;;;5.45;;
28174;SDS011;59417;44.788;10.334;2023-04-24T01:37:45;9.23;;;5.80;;
28174;SDS011;59417;44.788;10.334;2023-04-24T01:40:11;6.40;;;5.50;;
28174;SDS011;59417;44.788;10.334;2023-04-24T01:42:37;7.97;;;5.78;;
28174;SDS011;59417;44.788;10.334;2023-04-24T01:45:03;9.55;;;6.38;;
28174;SDS011;59417;44.788;10.334;2023-04-24T01:47:33;7.50;;;6.18;;
28174;SDS011;59417;44.788;10.334;2023-04-24T01:49:59;10.50;;;5.82;;
28174;SDS011;59417;44.788;10.334;2023-04-24T01:52:24;8.90;;;5.75;;
28174;SDS011;59417;44.788;10.334;2023-04-24T01:54:50;8.23;;;5.85;;
28174;SDS011;59417;44.788;10.334;2023-04-24T01:57:17;9.50;;;6.47;;
28174;SDS011;59417;44.788;10.334;2023-04-24T01:59:43;13.68;;;7.50;;
28174;SDS011;59417;44.788;10.334;2023-04-24T02:02:08;9.07;;;6.40;;
28174;SDS011;59417;44.788;10.334;2023-04-24T02:04:34;12.35;;;6.93;;
28174;SDS011;59417;44.788;10.334;2023-04-24T02:07:00;8.38;;;7.25;;
28174;SDS011;59417;44.788;10.334;2023-04-24T02:09:25;8.98;;;6.70;;
28174;SDS011;59417;44.788;10.334;2023-04-24T02:11:51;9.70;;;7.32;;
28174;SDS011;59417;44.788;10.334;2023-04-24T02:14:17;10.82;;;7.82;;
28174;SDS011;59417;44.788;10.334;2023-04-24T02:16:42;9.45;;;6.57;;
28174;SDS011;59417;44.788;10.334;2023-04-24T02:19:09;7.80;;;6.55;;
28174;SDS011;59417;44.788;10.334;2023-04-24T02:21:35;8.38;;;6.57;;
28174;SDS011;59417;44.788;10.334;2023-04-24T02:24:01;9.38;;;6.53;;
28174;SDS011;59417;44.788;10.334;2023-04-24T02:26:27;8.45;;;7.18;;
28174;SDS011;59417;44.788;10.334;2023-04-24T02:28:53;9.68;;;6.57;;
28174;SDS011;59417;44.788;10.334;2023-04-24T02:31:19;9.82;;;7.20;;
28174;SDS011;59417;44.788;10.334;2023-04-24T02:33:46;10.55;;;7.10;;
28174;SDS011;59417;44.788;10.334;2023-04-24T02:36:12;9.02;;;7.10;;
28174;SDS011;59417;44.788;10.334;2023-04-24T02:38:39;8.63;;;6.43;;
28174;SDS011;59417;44.788;10.334;2023-04-24T02:41:05;7.32;;;6.40;;
28174;SDS011;59417;44.788;10.334;2023-04-24T02:43:31;14.82;;;7.13;;
28174;SDS011;59417;44.788;10.334;2023-04-24T02:45:58;8.75;;;7.40;;
28174;SDS011;59417;44.788;10.334;2023-04-24T02:48:25;9.13;;;7.20;;
28174;SDS011;59417;44.788;10.334;2023-04-24T02:50:51;12.52;;;7.00;;
28174;SDS011;59417;44.788;10.334;2023-04-24T02:53:17;14.23;;;7.38;;
28174;SDS011;59417;44.788;10.334;2023-04-24T02:55:42;11.52;;;7.30;;
28174;SDS011;59417;44.788;10.334;2023-04-24T02:58:08;10.20;;;7.53;;
28174;SDS011;59417;44.788;10.334;2023-04-24T03:00:34;13.52;;;6.85;;
28174;SDS011;59417;44.788;10.334;2023-04-24T03:02:59;9.40;;;7.75;;
28174;SDS011;59417;44.788;10.334;2023-04-24T03:05:25;8.10;;;6.55;;
28174;SDS011;59417;44.788;10.334;2023-04-24T03:07:52;11.15;;;7.13;;
28174;SDS011;59417;44.788;10.334;2023-04-24T03:10:20;11.57;;;7.93;;
28174;SDS011;59417;44.788;10.334;2023-04-24T03:12:48;10.30;;;7.75;;
28174;SDS011;59417;44.788;10.334;2023-04-24T03:15:14;8.55;;;7.55;;
28174;SDS011;59417;44.788;10.334;2023-04-24T03:17:40;7.25;;;6.30;;
28174;SDS011;59417;44.788;10.334;2023-04-24T03:20:06;12.85;;;7.22;;
28174;SDS011;59417;44.788;10.334;2023-04-24T03:22:34;9.60;;;7.35;;
28174;SDS011;59417;44.788;10.334;2023-04-24T03:25:04;12.13;;;8.45;;
28174;SDS011;59417;44.788;10.334;2023-04-24T03:27:30;10.27;;;7.90;;
28174;SDS011;59417;44.788;10.334;2023-04-24T03:30:01;11.02;;;7.95;;
28174;SDS011;59417;44.788;10.334;2023-04-24T03:32:47;10.55;;;7.65;;
28174;SDS011;59417;44.788;10.334;2023-04-24T03:35:18;13.23;;;8.07;;
28174;SDS011;59417;44.788;10.334;2023-04-24T03:37:44;8.93;;;7.22;;
28174;SDS011;59417;44.788;10.334;2023-04-24T03:40:39;11.63;;;7.63;;
28174;SDS011;59417;44.788;10.334;2023-04-24T03:43:15;8.95;;;7.72;;
28174;SDS011;59417;44.788;10.334;2023-04-24T03:45:41;8.65;;;7.30;;
28174;SDS011;59417;44.788;10.334;2023-04-24T03:48:08;8.57;;;7.68;;
28174;SDS011;59417;44.788;10.334;2023-04-24T03:50:33;9.48;;;7.95;;
28174;SDS011;59417;44.788;10.334;2023-04-24T03:53:00;9.55;;;7.72;;
28174;SDS011;59417;44.788;10.334;2023-04-24T03:55:34;10.07;;;7.90;;
28174;SDS011;59417;44.788;10.334;2023-04-24T03:58:00;10.30;;;7.90;;
28174;SDS011;59417;44.788;10.334;2023-04-24T04:00:26;10.40;;;8.60;;
28174;SDS011;59417;44.788;10.334;2023-04-24T04:03:10;13.32;;;8.98;;
28174;SDS011;59417;44.788;10.334;2023-04-24T04:05:36;11.10;;;8.52;;
28174;SDS011;59417;44.788;10.334;2023-04-24T04:08:02;12.55;;;9.40;;
28174;SDS011;59417;44.788;10.334;2023-04-24T04:10:28;12.05;;;9.63;;
28174;SDS011;59417;44.788;10.334;2023-04-24T04:12:53;14.63;;;9.65;;
28174;SDS011;59417;44.788;10.334;2023-04-24T04:15:19;12.07;;;8.73;;
28174;SDS011;59417;44.788;10.334;2023-04-24T04:17:45;13.85;;;9.32;;
28174;SDS011;59417;44.788;10.334;2023-04-24T04:20:11;13.07;;;8.57;;
28174;SDS011;59417;44.788;10.334;2023-04-24T04:22:38;12.00;;;7.65;;
28174;SDS011;59417;44.788;10.334;2023-04-24T04:25:07;12.82;;;9.48;;
28174;SDS011;59417;44.788;10.334;2023-04-24T04:27:33;12.45;;;8.95;;
28174;SDS011;59417;44.788;10.334;2023-04-24T04:30:04;10.50;;;8.38;;
28174;SDS011;59417;44.788;10.334;2023-04-24T04:32:36;13.50;;;8.45;;
28174;SDS011;59417;44.788;10.334;2023-04-24T04:35:03;13.52;;;9.23;;
28174;SDS011;59417;44.788;10.334;2023-04-24T04:37:32;10.88;;;8.80;;
28174;SDS011;59417;44.788;10.334;2023-04-24T04:40:14;10.10;;;8.63;;
28174;SDS011;59417;44.788;10.334;2023-04-24T04:42:49;11.05;;;9.18;;
28174;SDS011;59417;44.788;10.334;2023-04-24T04:45:19;14.40;;;9.93;;
28174;SDS011;59417;44.788;10.334;2023-04-24T04:48:05;13.18;;;9.52;;
28174;SDS011;59417;44.788;10.334;2023-04-24T04:50:35;17.33;;;8.88;;
28174;SDS011;59417;44.788;10.334;2023-04-24T04:53:05;10.63;;;9.35;;
28174;SDS011;59417;44.788;10.334;2023-04-24T04:58:10;14.13;;;8.48;;
28174;SDS011;59417;44.788;10.334;2023-04-24T05:00:36;14.32;;;9.82;;
28174;SDS011;59417;44.788;10.334;2023-04-24T05:03:12;15.40;;;9.55;;
28174;SDS011;59417;44.788;10.334;2023-04-24T05:05:38;10.90;;;9.25;;
28174;SDS011;59417;44.788;10.334;2023-04-24T05:08:10;9.65;;;8.63;;
28174;SDS011;59417;44.788;10.334;2023-04-24T05:10:35;13.02;;;9.88;;
28174;SDS011;59417;44.788;10.334;2023-04-24T05:13:03;12.52;;;10.02;;
28174;SDS011;59417;44.788;10.334;2023-04-24T05:15:30;12.52;;;9.93;;
28174;SDS011;59417;44.788;10.334;2023-04-24T05:17:58;11.60;;;9.60;;
28174;SDS011;59417;44.788;10.334;2023-04-24T05:20:26;12.60;;;10.05;;
28174;SDS011;59417;44.788;10.334;2023-04-24T05:22:53;11.43;;;9.45;;
28174;SDS011;59417;44.788;10.334;2023-04-24T05:25:20;11.07;;;9.80;;
28174;SDS011;59417;44.788;10.334;2023-04-24T05:27:52;14.90;;;9.85;;
28174;SDS011;59417;44.788;10.334;2023-04-24T05:30:18;14.85;;;11.23;;
28174;SDS011;59417;44.788;10.334;2023-04-24T05:32:45;18.55;;;10.27;;
28174;SDS011;59417;44.788;10.334;2023-04-24T05:35:12;17.30;;;11.13;;
28174;SDS011;59417;44.788;10.334;2023-04-24T05:37:37;15.35;;;10.95;;
28174;SDS011;59417;44.788;10.334;2023-04-24T05:40:03;15.23;;;11.10;;
28174;SDS011;59417;44.788;10.334;2023-04-24T05:42:30;15.25;;;11.73;;
28174;SDS011;59417;44.788;10.334;2023-04-24T05:44:57;15.07;;;12.50;;
28174;SDS011;59417;44.788;10.334;2023-04-24T05:47:22;15.77;;;11.50;;
28174;SDS011;59417;44.788;10.334;2023-04-24T05:49:49;21.45;;;14.27;;
28174;SDS011;59417;44.788;10.334;2023-04-24T05:52:15;22.30;;;14.27;;
28174;SDS011;59417;44.788;10.334;2023-04-24T05:54:42;20.15;;;14.05;;
28174;SDS011;59417;44.788;10.334;2023-04-24T05:57:09;22.42;;;16.00;;
28174;SDS011;59417;44.788;10.334;2023-04-24T05:59:49;16.60;;;13.50;;
28174;SDS011;59417;44.788;10.334;2023-04-24T06:02:15;16.50;;;13.85;;
28174;SDS011;59417;44.788;10.334;2023-04-24T06:04:41;19.52;;;14.07;;
28174;SDS011;59417;44.788;10.334;2023-04-24T06:07:07;17.85;;;13.93;;
28174;SDS011;59417;44.788;10.334;2023-04-24T06:09:33;20.77;;;13.80;;
28174;SDS011;59417;44.788;10.334;2023-04-24T06:11:59;17.52;;;14.07;;
28174;SDS011;59417;44.788;10.334;2023-04-24T06:14:33;22.20;;;15.70;;
28174;SDS011;59417;44.788;10.334;2023-04-24T06:17:13;18.20;;;15.43;;
28174;SDS011;59417;44.788;10.334;2023-04-24T06:19:40;21.35;;;15.07;;
28174;SDS011;59417;44.788;10.334;2023-04-24T06:22:06;20.58;;;13.18;;
28174;SDS011;59417;44.788;10.334;2023-04-24T06:24:31;19.88;;;14.52;;
28174;SDS011;59417;44.788;10.334;2023-04-24T06:26:59;18.90;;;15.05;;
28174;SDS011;59417;44.788;10.334;2023-04-24T06:29:26;18.77;;;14.55;;
28174;SDS011;59417;44.788;10.334;2023-04-24T06:31:52;21.27;;;14.88;;
28174;SDS011;59417;44.788;10.334;2023-04-24T06:34:18;21.08;;;16.10;;
28174;SDS011;59417;44.788;10.334;2023-04-24T06:36:46;20.33;;;15.40;;
28174;SDS011;59417;44.788;10.334;2023-04-24T06:39:12;23.70;;;15.65;;
28174;SDS011;59417;44.788;10.334;2023-04-24T06:41:38;23.20;;;15.88;;
28174;SDS011;59417;44.788;10.334;2023-04-24T06:44:05;17.98;;;15.35;;
28174;SDS011;59417;44.788;10.334;2023-04-24T06:46:30;21.65;;;13.95;;
28174;SDS011;59417;44.788;10.334;2023-04-24T06:48:56;18.10;;;13.13;;
28174;SDS011;59417;44.788;10.334;2023-04-24T06:51:25;19.27;;;15.57;;
28174;SDS011;59417;44.788;10.334;2023-04-24T06:53:53;19.58;;;14.70;;
28174;SDS011;59417;44.788;10.334;2023-04-24T06:56:19;19.55;;;14.98;;
28174;SDS011;59417;44.788;10.334;2023-04-24T06:58:45;27.73;;;17.92;;
28174;SDS011;59417;44.788;10.334;2023-04-24T07:01:11;20.58;;;14.55;;
28174;SDS011;59417;44.788;10.334;2023-04-24T07:03:37;21.45;;;16.25;;
28174;SDS011;59417;44.788;10.334;2023-04-24T07:06:03;27.52;;;14.50;;
28174;SDS011;59417;44.788;10.334;2023-04-24T07:08:30;19.50;;;13.90;;
28174;SDS011;59417;44.788;10.334;2023-04-24T07:10:56;19.83;;;14.88;;
28174;SDS011;59417;44.788;10.334;2023-04-24T07:13:22;15.38;;;12.35;;
28174;SDS011;59417;44.788;10.334;2023-04-24T07:15:48;17.92;;;12.27;;
28174;SDS011;59417;44.788;10.334;2023-04-24T07:18:19;18.92;;;12.65;;
28174;SDS011;59417;44.788;10.334;2023-04-24T07:20:48;14.80;;;12.33;;
28174;SDS011;59417;44.788;10.334;2023-04-24T07:23:15;12.95;;;10.70;;
28174;SDS011;59417;44.788;10.334;2023-04-24T07:25:41;12.18;;;10.48;;
28174;SDS011;59417;44.788;10.334;2023-04-24T07:28:07;15.07;;;10.70;;
28174;SDS011;59417;44.788;10.334;2023-04-24T07:30:33;14.73;;;10.65;;
28174;SDS011;59417;44.788;10.334;2023-04-24T07:32:59;19.02;;;10.65;;
28174;SDS011;59417;44.788;10.334;2023-04-24T07:35:25;14.90;;;11.07;;
28174;SDS011;59417;44.788;10.334;2023-04-24T07:37:55;14.48;;;11.30;;
28174;SDS011;59417;44.788;10.334;2023-04-24T07:40:21;13.90;;;11.50;;
28174;SDS011;59417;44.788;10.334;2023-04-24T07:42:47;16.60;;;11.52;;
28174;SDS011;59417;44.788;10.334;2023-04-24T07:45:13;14.45;;;11.07;;
28174;SDS011;59417;44.788;10.334;2023-04-24T07:47:41;14.82;;;10.70;;
28174;SDS011;59417;44.788;10.334;2023-04-24T07:50:09;17.23;;;11.77;;
28174;SDS011;59417;44.788;10.334;2023-04-24T07:52:35;14.18;;;11.88;;
28174;SDS011;59417;44.788;10.334;2023-04-24T07:55:01;12.95;;;9.18;;
28174;SDS011;59417;44.788;10.334;2023-04-24T07:57:27;12.38;;;9.35;;
28174;SDS011;59417;44.788;10.334;2023-04-24T07:59:53;15.00;;;10.32;;
28174;SDS011;59417;44.788;10.334;2023-04-24T08:02:19;13.95;;;10.50;;
28174;SDS011;59417;44.788;10.334;2023-04-24T08:04:51;9.57;;;8.57;;
28174;SDS011;59417;44.788;10.334;2023-04-24T08:07:18;15.73;;;10.15;;
28174;SDS011;59417;44.788;10.334;2023-04-24T08:09:43;13.20;;;9.65;;
28174;SDS011;59417;44.788;10.334;2023-04-24T08:12:09;12.90;;;9.45;;
28174;SDS011;59417;44.788;10.334;2023-04-24T08:14:35;12.10;;;8.98;;
28174;SDS011;59417;44.788;10.334;2023-04-24T08:17:01;11.93;;;9.00;;
28174;SDS011;59417;44.788;10.334;2023-04-24T08:19:27;11.82;;;8.57;;
28174;SDS011;59417;44.788;10.334;2023-04-24T08:21:53;9.38;;;8.10;;
28174;SDS011;59417;44.788;10.334;2023-04-24T08:24:18;14.88;;;8.98;;
28174;SDS011;59417;44.788;10.334;2023-04-24T08:26:44;12.10;;;7.93;;
28174;SDS011;59417;44.788;10.334;2023-04-24T08:29:10;12.93;;;7.70;;
28174;SDS011;59417;44.788;10.334;2023-04-24T08:31:36;11.90;;;7.57;;
28174;SDS011;59417;44.788;10.334;2023-04-24T08:34:01;13.02;;;7.75;;
28174;SDS011;59417;44.788;10.334;2023-04-24T08:36:27;13.45;;;7.88;;
28174;SDS011;59417;44.788;10.334;2023-04-24T08:38:53;10.50;;;7.63;;
28174;SDS011;59417;44.788;10.334;2023-04-24T08:41:18;11.52;;;6.93;;
28174;SDS011;59417;44.788;10.334;2023-04-24T08:43:47;12.48;;;6.13;;
28174;SDS011;59417;44.788;10.334;2023-04-24T08:46:13;10.40;;;6.35;;
28174;SDS011;59417;44.788;10.334;2023-04-24T08:48:41;11.68;;;7.82;;
28174;SDS011;59417;44.788;10.334;2023-04-24T08:51:07;14.32;;;6.55;;
28174;SDS011;59417;44.788;10.334;2023-04-24T08:53:34;9.10;;;6.57;;
28174;SDS011;59417;44.788;10.334;2023-04-24T08:56:01;8.52;;;6.70;;
28174;SDS011;59417;44.788;10.334;2023-04-24T08:58:27;11.00;;;7.32;;
28174;SDS011;59417;44.788;10.334;2023-04-24T09:00:54;12.43;;;7.90;;
28174;SDS011;59417;44.788;10.334;2023-04-24T09:03:20;14.60;;;9.13;;
28174;SDS011;59417;44.788;10.334;2023-04-24T09:05:47;15.77;;;8.68;;
28174;SDS011;59417;44.788;10.334;2023-04-24T09:08:19;18.33;;;9.43;;
28174;SDS011;59417;44.788;10.334;2023-04-24T09:10:45;11.18;;;9.07;;
28174;SDS011;59417;44.788;10.334;2023-04-24T09:13:10;12.70;;;8.90;;
28174;SDS011;59417;44.788;10.334;2023-04-24T09:15:38;14.43;;;7.93;;
28174;SDS011;59417;44.788;10.334;2023-04-24T09:18:06;16.00;;;8.57;;
28174;SDS011;59417;44.788;10.334;2023-04-24T09:20:32;9.35;;;8.35;;
28174;SDS011;59417;44.788;10.334;2023-04-24T09:22:58;16.08;;;9.35;;
28174;SDS011;59417;44.788;10.334;2023-04-24T09:25:33;13.15;;;8.48;;
28174;SDS011;59417;44.788;10.334;2023-04-24T09:28:03;12.50;;;8.77;;
28174;SDS011;59417;44.788;10.334;2023-04-24T09:30:31;10.65;;;8.00;;
28174;SDS011;59417;44.788;10.334;2023-04-24T09:33:13;12.48;;;7.90;;
28174;SDS011;59417;44.788;10.334;2023-04-24T09:35:41;11.32;;;8.07;;
28174;SDS011;59417;44.788;10.334;2023-04-24T09:38:08;9.07;;;7.57;;
28174;SDS011;59417;44.788;10.334;2023-04-24T09:40:34;10.95;;;9.35;;
28174;SDS011;59417;44.788;10.334;2023-04-24T09:43:01;11.48;;;8.45;;
28174;SDS011;59417;44.788;10.334;2023-04-24T09:45:37;15.25;;;9.05;;
28174;SDS011;59417;44.788;10.334;2023-04-24T09:48:04;11.90;;;7.53;;
28174;SDS011;59417;44.788;10.334;2023-04-24T09:50:31;7.20;;;5.80;;
28174;SDS011;59417;44.788;10.334;2023-04-24T09:52:58;6.05;;;4.80;;
28174;SDS011;59417;44.788;10.334;2023-04-24T09:55:26;10.43;;;5.40;;
28174;SDS011;59417;44.788;10.334;2023-04-24T10:00:21;6.25;;;5.20;;
28174;SDS011;59417;44.788;10.334;2023-04-24T10:03:05;9.50;;;6.00;;
28174;SDS011;59417;44.788;10.334;2023-04-24T10:05:32;8.18;;;6.60;;
28174;SDS011;59417;44.788;10.334;2023-04-24T10:08:06;9.30;;;6.35;;
28174;SDS011;59417;44.788;10.334;2023-04-24T10:10:37;9.68;;;6.50;;
28174;SDS011;59417;44.788;10.334;2023-04-24T10:13:04;6.70;;;5.88;;
28174;SDS011;59417;44.788;10.334;2023-04-24T10:15:30;8.30;;;6.18;;
28174;SDS011;59417;44.788;10.334;2023-04-24T10:17:57;10.07;;;6.57;;
28174;SDS011;59417;44.788;10.334;2023-04-24T10:20:25;8.93;;;6.45;;
28174;SDS011;59417;44.788;10.334;2023-04-24T10:22:54;8.27;;;7.38;;
28174;SDS011;59417;44.788;10.334;2023-04-24T10:25:22;8.70;;;7.30;;
28174;SDS011;59417;44.788;10.334;2023-04-24T10:27:50;10.98;;;7.68;;
28174;SDS011;59417;44.788;10.334;2023-04-24T10:30:18;9.50;;;7.75;;
28174;SDS011;59417;44.788;10.334;2023-04-24T10:32:45;13.80;;;8.48;;
28174;SDS011;59417;44.788;10.334;2023-04-24T10:35:12;8.63;;;7.55;;
28174;SDS011;59417;44.788;10.334;2023-04-24T10:37:39;12.40;;;7.68;;
28174;SDS011;59417;44.788;10.334;2023-04-24T10:40:25;7.57;;;6.43;;
28174;SDS011;59417;44.788;10.334;2023-04-24T10:42:53;8.83;;;6.87;;
28174;SDS011;59417;44.788;10.334;2023-04-24T10:45:19;7.65;;;5.82;;
28174;SDS011;59417;44.788;10.334;2023-04-24T10:47:57;5.90;;;5.30;;
28174;SDS011;59417;44.788;10.334;2023-04-24T10:50:29;12.32;;;5.43;;
28174;SDS011;59417;44.788;10.334;2023-04-24T10:53:07;8.48;;;6.30;;
28174;SDS011;59417;44.788;10.334;2023-04-24T10:55:41;4.80;;;4.18;;
28174;SDS011;59417;44.788;10.334;2023-04-24T10:58:07;6.35;;;5.15;;
28174;SDS011;59417;44.788;10.334;2023-04-24T11:00:33;6.45;;;5.55;;
28174;SDS011;59417;44.788;10.334;2023-04-24T11:03:03;5.95;;;5.28;;
28174;SDS011;59417;44.788;10.334;2023-04-24T11:05:49;7.82;;;5.97;;
28174;SDS011;59417;44.788;10.334;2023-04-24T11:08:27;8.57;;;6.43;;
28174;SDS011;59417;44.788;10.334;2023-04-24T11:11:12;9.98;;;7.32;;
28174;SDS011;59417;44.788;10.334;2023-04-24T11:19:26;7.65;;;6.72;;
28174;SDS011;59417;44.788;10.334;2023-04-24T11:22:00;9.25;;;7.32;;
28174;SDS011;59417;44.788;10.334;2023-04-24T11:25:10;10.45;;;8.70;;
28174;SDS011;59417;44.788;10.334;2023-04-24T11:27:24;8.18;;;7.32;;
28174;SDS011;59417;44.788;10.334;2023-04-24T11:30:04;10.55;;;7.15;;
28174;SDS011;59417;44.788;10.334;2023-04-24T11:35:07;11.13;;;7.93;;
28174;SDS011;59417;44.788;10.334;2023-04-24T11:37:42;10.05;;;9.05;;
28174;SDS011;59417;44.788;10.334;2023-04-24T11:40:11;9.50;;;7.38;;
28174;SDS011;59417;44.788;10.334;2023-04-24T11:42:39;7.70;;;6.32;;
28174;SDS011;59417;44.788;10.334;2023-04-24T11:47:55;10.25;;;7.25;;
28174;SDS011;59417;44.788;10.334;2023-04-24T11:50:24;9.98;;;8.90;;
28174;SDS011;59417;44.788;10.334;2023-04-24T11:52:52;8.98;;;7.47;;
28174;SDS011;59417;44.788;10.334;2023-04-24T12:00:18;8.57;;;7.78;;
28174;SDS011;59417;44.788;10.334;2023-04-24T12:02:46;9.40;;;8.40;;
28174;SDS011;59417;44.788;10.334;2023-04-24T12:05:27;8.35;;;7.55;;
28174;SDS011;59417;44.788;10.334;2023-04-24T12:07:56;9.98;;;7.75;;
28174;SDS011;59417;44.788;10.334;2023-04-24T12:10:22;8.82;;;7.88;;
28174;SDS011;59417;44.788;10.334;2023-04-24T12:12:50;10.25;;;8.05;;
28174;SDS011;59417;44.788;10.334;2023-04-24T12:15:17;9.98;;;7.05;;
28174;SDS011;59417;44.788;10.334;2023-04-24T12:17:44;11.70;;;8.30;;
28174;SDS011;59417;44.788;10.334;2023-04-24T12:20:10;10.00;;;8.00;;
28174;SDS011;59417;44.788;10.334;2023-04-24T12:25:13;12.63;;;7.88;;
28174;SDS011;59417;44.788;10.334;2023-04-24T12:27:40;9.10;;;8.20;;
28174;SDS011;59417;44.788;10.334;2023-04-24T12:30:12;8.82;;;5.75;;
28174;SDS011;59417;44.788;10.334;2023-04-24T12:32:42;9.90;;;6.35;;
28174;SDS011;59417;44.788;10.334;2023-04-24T12:35:11;8.75;;;7.10;;
28174;SDS011;59417;44.788;10.334;2023-04-24T12:37:38;8.15;;;6.10;;
28174;SDS011;59417;44.788;10.334;2023-04-24T12:40:08;5.78;;;4.80;;
28174;SDS011;59417;44.788;10.334;2023-04-24T12:42:35;6.10;;;5.50;;
28174;SDS011;59417;44.788;10.334;2023-04-24T12:45:07;7.50;;;5.50;;
28174;SDS011;59417;44.788;10.334;2023-04-24T12:47:33;7.70;;;6.38;;
28174;SDS011;59417;44.788;10.334;2023-04-24T12:49:59;7.75;;;6.38;;
28174;SDS011;59417;44.788;10.334;2023-04-24T12:52:27;7.55;;;6.25;;
28174;SDS011;59417;44.788;10.334;2023-04-24T12:54:54;5.60;;;5.00;;
28174;SDS011;59417;44.788;10.334;2023-04-24T12:57:23;7.80;;;6.95;;
28174;SDS011;59417;44.788;10.334;2023-04-24T12:59:49;5.00;;;4.50;;
28174;SDS011;59417;44.788;10.334;2023-04-24T13:02:15;6.90;;;4.80;;
28174;SDS011;59417;44.788;10.334;2023-04-24T13:04:45;10.70;;;8.27;;
28174;SDS011;59417;44.788;10.334;2023-04-24T13:07:12;5.90;;;5.30;;
28174;SDS011;59417;44.788;10.334;2023-04-24T13:09:39;5.13;;;4.63;;
28174;SDS011;59417;44.788;10.334;2023-04-24T13:12:04;9.52;;;5.30;;
28174;SDS011;59417;44.788;10.334;2023-04-24T13:14:31;4.97;;;4.45;;
28174;SDS011;59417;44.788;10.334;2023-04-24T13:16:57;5.45;;;4.95;;
28174;SDS011;59417;44.788;10.334;2023-04-24T13:19:26;10.70;;;4.53;;
28174;SDS011;59417;44.788;10.334;2023-04-24T13:21:54;5.70;;;4.07;;
28174;SDS011;59417;44.788;10.334;2023-04-24T13:24:21;4.93;;;4.53;;
28174;SDS011;59417;44.788;10.334;2023-04-24T13:26:50;6.07;;;4.23;;
28174;SDS011;59417;44.788;10.334;2023-04-24T13:29:16;7.63;;;4.93;;
28174;SDS011;59417;44.788;10.334;2023-04-24T13:31:42;4.55;;;4.05;;
28174;SDS011;59417;44.788;10.334;2023-04-24T13:34:07;6.60;;;3.95;;
28174;SDS011;59417;44.788;10.334;2023-04-24T13:36:33;5.75;;;4.10;;
28174;SDS011;59417;44.788;10.334;2023-04-24T13:39:00;7.85;;;5.85;;
28174;SDS011;59417;44.788;10.334;2023-04-24T13:41:26;6.03;;;4.47;;
28174;SDS011;59417;44.788;10.334;2023-04-24T13:46:26;5.50;;;4.90;;
28174;SDS011;59417;44.788;10.334;2023-04-24T13:48:52;9.85;;;5.00;;
28174;SDS011;59417;44.788;10.334;2023-04-24T13:51:20;4.13;;;3.17;;
28174;SDS011;59417;44.788;10.334;2023-04-24T13:56:42;3.60;;;1.73;;
28174;SDS011;59417;44.788;10.334;2023-04-24T14:02:10;3.15;;;2.25;;
28174;SDS011;59417;44.788;10.334;2023-04-24T14:04:39;2.63;;;2.10;;
28174;SDS011;59417;44.788;10.334;2023-04-24T14:07:05;6.37;;;2.80;;
28174;SDS011;59417;44.788;10.334;2023-04-24T14:09:40;2.78;;;2.30;;
28174;SDS011;59417;44.788;10.334;2023-04-24T14:16:16;3.05;;;2.22;;
28174;SDS011;59417;44.788;10.334;2023-04-24T14:25:46;2.75;;;1.60;;
28174;SDS011;59417;44.788;10.334;2023-04-24T14:35:35;1.65;;;1.55;;
28174;SDS011;59417;44.788;10.334;2023-04-24T14:38:01;3.78;;;1.17;;
28174;SDS011;59417;44.788;10.334;2023-04-24T14:40:32;5.40;;;1.63;;
28174;SDS011;59417;44.788;10.334;2023-04-24T14:43:07;2.58;;;1.05;;
28174;SDS011;59417;44.788;10.334;2023-04-24T14:49:39;2.03;;;1.10;;
28174;SDS011;59417;44.788;10.334;2023-04-24T14:52:05;1.70;;;0.70;;
28174;SDS011;59417;44.788;10.334;2023-04-24T14:55:05;2.75;;;1.10;;
28174;SDS011;59417;44.788;10.334;2023-04-24T14:58:28;1.25;;;0.80;;
28174;SDS011;59417;44.788;10.334;2023-04-24T15:01:06;1.55;;;0.88;;
28174;SDS011;59417;44.788;10.334;2023-04-24T15:03:37;1.55;;;0.60;;
28174;SDS011;59417;44.788;10.334;2023-04-24T15:06:08;0.80;;;0.60;;
28174;SDS011;59417;44.788;10.334;2023-04-24T15:08:37;1.50;;;1.10;;
28174;SDS011;59417;44.788;10.334;2023-04-24T15:11:23;4.32;;;0.95;;
28174;SDS011;59417;44.788;10.334;2023-04-24T15:14:00;3.72;;;0.90;;
28174;SDS011;59417;44.788;10.334;2023-04-24T15:16:35;2.85;;;0.80;;
28174;SDS011;59417;44.788;10.334;2023-04-24T15:22:57;1.50;;;0.93;;
28174;SDS011;59417;44.788;10.334;2023-04-24T16:10:48;1.45;;;1.10;;
28174;SDS011;59417;44.788;10.334;2023-04-24T16:13:35;3.88;;;1.30;;
28174;SDS011;59417;44.788;10.334;2023-04-24T16:16:03;3.33;;;1.50;;